Time;durP1;ratioP1;P1;durP2;ratioP2;P2;SDS_P1;SDS_P2;PMS_P1;PMS_P2;Temp;Humidity;BMP_temperature;BMP_pressure;BME280_temperature;BME280_humidity;BME280_pressure;Samples;Min_cycle;Max_cycle;Signal;HPM_P1;HPM_P2
2022/02/09 00:00:20;;;;;;;15.48;13.73;;;;;;;7.66;98.07;102317.50;2055350;28;40670;-73
2022/02/09 00:02:02;;;;;;;16.25;14.48;;;;;;;7.65;97.69;102321.97;2063562;28;45080;-73
2022/02/09 00:03:08;;;;;;;14.68;12.50;;;;;;;7.67;98.21;102326.44;2063646;28;43388;-73
2022/02/09 00:05:28;;;;;;;16.27;14.10;;;;;;;7.63;98.06;102313.06;2063577;28;45475;-72
2022/02/09 00:06:47;;;;;;;15.45;12.70;;;;;;;7.63;98.08;102309.50;2064080;28;46204;-73
2022/02/09 00:08:59;;;;;;;19.85;14.85;;;;;;;7.62;97.61;102316.59;2063320;28;45316;-72
2022/02/09 00:10:02;;;;;;;18.60;13.75;;;;;;;7.60;97.91;102315.69;2063531;28;44799;-73
2022/02/09 00:11:05;;;;;;;19.08;14.45;;;;;;;7.60;97.95;102318.34;2064081;28;43128;-72
2022/02/09 00:12:14;;;;;;;18.17;13.43;;;;;;;7.61;98.32;102312.16;2063909;28;45155;-73
2022/02/09 00:14:32;;;;;;;20.92;13.65;;;;;;;7.60;97.77;102321.00;2063959;28;45192;-73
2022/02/09 00:15:44;;;;;;;17.38;13.20;;;;;;;7.60;98.04;102315.69;2063975;28;46013;-72
2022/02/09 00:17:17;;;;;;;20.45;14.20;;;;;;;7.59;98.11;102308.56;2063222;28;45841;-73
2022/02/09 00:18:57;;;;;;;18.67;14.05;;;;;;;7.58;97.79;102306.78;2062350;28;43215;-73
2022/02/09 00:19:55;;;;;;;18.10;14.88;;;;;;;7.58;98.17;102313.88;2063548;28;44323;-72
2022/02/09 00:24:49;;;;;;;24.08;14.10;;;;;;;7.56;98.01;102308.53;2063583;28;44025;-73
2022/02/09 00:42:43;;;;;;;21.90;14.82;;;;;;;7.53;96.84;102303.16;2063843;28;44455;-73
2022/02/09 00:45:20;;;;;;;23.58;14.85;;;;;;;7.53;97.13;102303.16;2063979;28;43169;-73
2022/02/09 01:33:11;;;;;;;23.95;13.75;;;;;;;7.50;96.37;102312.88;2063215;28;44041;-73
2022/02/09 01:38:33;;;;;;;26.92;14.23;;;;;;;7.47;96.17;102321.75;2063471;28;41940;-72
2022/02/09 01:39:57;;;;;;;17.40;14.07;;;;;;;7.47;96.39;102324.41;2063512;28;45620;-72
2022/02/09 01:43:26;;;;;;;19.42;14.18;;;;;;;7.47;96.50;102319.09;2062912;28;46345;-72
2022/02/09 01:44:34;;;;;;;20.67;13.50;;;;;;;7.47;95.96;102315.53;2063757;28;40235;-72
2022/02/09 01:55:49;;;;;;;19.45;13.43;;;;;;;7.48;96.54;102303.97;2062462;28;44056;-73
2022/02/09 01:56:53;;;;;;;22.83;13.75;;;;;;;7.47;96.01;102308.44;2062395;28;45526;-73
2022/02/09 01:57:55;;;;;;;20.95;13.23;;;;;;;7.48;96.34;102304.88;2055974;28;43142;-73
2022/02/09 01:58:57;;;;;;;21.67;13.25;;;;;;;7.48;95.70;102298.66;2062625;28;44466;-72
2022/02/09 02:00:00;;;;;;;24.27;13.98;;;;;;;7.49;95.88;102290.69;2063136;28;37410;-72
2022/02/09 02:01:02;;;;;;;19.52;13.48;;;;;;;7.50;96.36;102299.56;2062349;28;44205;-72
2022/02/09 02:02:05;;;;;;;22.73;13.88;;;;;;;7.48;96.05;102288.88;2062862;28;44461;-72
2022/02/09 02:03:07;;;;;;;19.83;12.73;;;;;;;7.48;96.33;102291.53;2063294;28;44605;-72
2022/02/09 02:04:09;;;;;;;23.10;12.80;;;;;;;7.49;96.26;102296.00;2054421;28;44227;-72
2022/02/09 02:05:17;;;;;;;21.80;12.50;;;;;;;7.50;95.54;102295.16;2055978;28;20058;-72
2022/02/09 02:06:19;;;;;;;20.30;13.18;;;;;;;7.50;95.91;102291.56;2063391;28;43066;-72
2022/02/09 02:07:31;;;;;;;22.48;13.15;;;;;;;7.51;96.01;102293.38;2063226;28;45421;-72
2022/02/09 02:08:34;;;;;;;18.95;12.98;;;;;;;7.51;95.50;102294.25;2063460;28;45261;-72
2022/02/09 02:09:37;;;;;;;20.83;13.02;;;;;;;7.51;96.16;102293.38;2063230;28;44112;-72
2022/02/09 02:11:53;;;;;;;19.45;12.45;;;;;;;7.49;95.71;102290.69;2062541;28;43883;-73
2022/02/09 02:14:23;;;;;;;22.40;12.55;;;;;;;7.48;95.70;102291.53;2063401;28;40252;-72
2022/02/09 02:16:43;;;;;;;17.70;12.50;;;;;;;7.50;95.81;102297.81;2063229;28;45529;-73
2022/02/09 02:17:48;;;;;;;20.95;12.90;;;;;;;7.51;95.70;102288.03;2062815;28;45413;-73
2022/02/09 02:18:57;;;;;;;22.35;12.98;;;;;;;7.49;95.45;102293.34;2062549;28;44957;-72
2022/02/09 02:20:11;;;;;;;20.85;13.25;;;;;;;7.48;96.29;102291.53;2063294;28;43573;-72
2022/02/09 02:25:33;;;;;;;19.17;12.48;;;;;;;7.48;96.61;102293.31;2053955;28;44239;-73
2022/02/09 02:28:14;;;;;;;21.23;12.73;;;;;;;7.45;96.29;102287.09;2061614;28;20510;-72
2022/02/09 02:29:29;;;;;;;19.98;12.82;;;;;;;7.45;95.93;102294.19;2062835;28;44400;-72
2022/02/09 02:32:04;;;;;;;24.60;13.00;;;;;;;7.42;96.11;102291.47;2063113;28;44924;-73
2022/02/09 02:33:29;;;;;;;21.45;13.38;;;;;;;7.43;96.32;102294.16;2062762;28;40818;-72
2022/02/09 02:40:03;;;;;;;22.08;13.13;;;;;;;7.40;97.11;102285.25;2063175;28;43021;-73
2022/02/09 02:42:05;;;;;;;25.63;14.23;;;;;;;7.39;96.51;102287.03;2062949;28;40702;-72
2022/02/09 02:43:26;;;;;;;24.33;13.48;;;;;;;7.38;96.57;102277.22;2062821;28;46180;-73
2022/02/09 02:57:54;;;;;;;24.85;14.50;;;;;;;7.31;96.57;102263.81;2062994;28;43064;-72
2022/02/09 03:09:58;;;;;;;25.65;16.20;;;;;;;7.29;97.23;102239.81;2057585;28;40459;-73
2022/02/09 03:13:35;;;;;;;25.60;14.93;;;;;;;7.29;96.71;102230.94;2062764;28;45400;-73
2022/02/09 03:16:55;;;;;;;23.52;14.90;;;;;;;7.28;97.06;102230.03;2063322;28;44783;-73
2022/02/09 03:19:41;;;;;;;25.42;15.05;;;;;;;7.28;96.89;102232.69;2063000;28;46364;-73
2022/02/09 03:20:53;;;;;;;27.15;15.07;;;;;;;7.29;97.17;102229.16;2062839;28;42034;-73
2022/02/09 03:27:28;;;;;;;26.38;14.40;;;;;;;7.28;96.81;102221.16;2063193;28;44444;-73
2022/02/09 03:42:13;;;;;;;20.02;13.55;;;;;;;7.30;96.49;102214.06;2064288;28;42893;-73
2022/02/09 03:43:55;;;;;;;22.52;13.95;;;;;;;7.37;95.28;102216.81;2063790;28;44926;-73
2022/02/09 03:48:28;;;;;;;19.48;13.40;;;;;;;7.38;94.86;102215.94;2063704;28;39313;-73
2022/02/09 03:51:05;;;;;;;21.08;13.07;;;;;;;7.41;94.84;102215.06;2064565;28;41325;-73
2022/02/09 03:52:31;;;;;;;19.45;12.82;;;;;;;7.42;95.27;102208.88;2064030;28;43945;-72
2022/02/09 03:53:46;;;;;;;19.20;12.40;;;;;;;7.41;94.66;102210.66;2063188;28;45382;-72
2022/02/09 03:54:59;;;;;;;19.50;12.05;;;;;;;7.42;94.38;102203.56;2064015;28;43800;-73
2022/02/09 03:56:24;;;;;;;17.83;11.50;;;;;;;7.44;94.69;102208.00;2054725;28;46508;-73
2022/02/09 03:57:29;;;;;;;18.33;12.40;;;;;;;7.45;94.80;102200.94;2055037;28;43195;-72
2022/02/09 03:58:31;;;;;;;22.83;12.93;;;;;;;7.44;94.18;102202.69;2063415;28;46044;-72
2022/02/09 03:59:34;;;;;;;25.48;12.50;;;;;;;7.45;93.98;102204.47;2064068;28;45848;-72
2022/02/09 04:00:39;;;;;;;18.50;12.05;;;;;;;7.45;94.05;102207.16;2063277;28;43397;-72
2022/02/09 04:01:43;;;;;;;20.73;12.32;;;;;;;7.46;94.07;102200.03;2064197;28;45032;-72
2022/02/09 04:02:51;;;;;;;17.75;12.07;;;;;;;7.45;94.26;102200.94;2064345;28;44369;-72
2022/02/09 04:03:52;;;;;;;17.85;11.80;;;;;;;7.47;94.08;102200.94;2064558;28;45131;-72
2022/02/09 04:04:57;;;;;;;19.65;11.43;;;;;;;7.48;94.10;102197.38;2064254;28;44801;-73
2022/02/09 04:05:58;;;;;;;17.55;11.27;;;;;;;7.48;94.35;102202.72;2064504;28;39173;-72
2022/02/09 04:07:02;;;;;;;19.08;11.70;;;;;;;7.49;93.80;102204.53;2064101;28;43939;-72
2022/02/09 04:08:05;;;;;;;15.27;11.20;;;;;;;7.48;93.28;102195.59;2064096;28;46021;-73
2022/02/09 04:09:12;;;;;;;16.85;11.10;;;;;;;7.51;93.67;102192.09;2063660;28;43748;-72
2022/02/09 04:10:20;;;;;;;18.27;11.18;;;;;;;7.51;93.55;102203.63;2063088;28;45169;-72
2022/02/09 04:11:33;;;;;;;19.73;10.93;;;;;;;7.53;93.23;102191.22;2064069;28;44103;-72
2022/02/09 04:13:50;;;;;;;15.55;10.55;;;;;;;7.53;93.29;102191.22;2064326;28;45802;-72
2022/02/09 04:15:03;;;;;;;15.70;9.13;;;;;;;7.54;93.38;102198.34;2064071;28;44985;-72
2022/02/09 04:16:23;;;;;;;14.77;9.63;;;;;;;7.55;92.80;102197.44;2063831;28;43998;-72
2022/02/09 04:17:36;;;;;;;14.35;9.30;;;;;;;7.54;92.93;102190.34;2064011;28;44808;-72
2022/02/09 04:20:10;;;;;;;13.55;9.82;;;;;;;7.56;93.01;102191.25;2064209;28;45775;-72
2022/02/09 04:23:17;;;;;;;16.90;9.88;;;;;;;7.56;92.76;102185.03;2064005;28;44944;-72
2022/02/09 04:36:15;;;;;;;14.07;8.65;;;;;;;7.55;92.56;102169.91;2064017;28;45658;-73
2022/02/09 04:37:25;;;;;;;14.82;9.48;;;;;;;7.54;93.08;102166.38;2062977;28;43458;-72
2022/02/09 04:38:50;;;;;;;15.35;8.82;;;;;;;7.56;91.80;102164.59;2063075;28;39847;-72
2022/02/09 04:40:06;;;;;;;17.27;9.32;;;;;;;7.55;92.28;102165.47;2063627;28;44849;-72
2022/02/09 04:44:30;;;;;;;15.75;9.52;;;;;;;7.54;92.83;102171.69;2063224;28;42731;-72
2022/02/09 04:48:02;;;;;;;16.33;10.13;;;;;;;7.53;92.48;102166.34;2063973;28;45191;-72
2022/02/09 04:49:12;;;;;;;15.10;9.27;;;;;;;7.53;92.92;102167.22;2064327;28;40340;-72
2022/02/09 04:51:22;;;;;;;13.60;9.68;;;;;;;7.51;92.74;102161.00;2063974;28;46212;-73
2022/02/09 04:52:33;;;;;;;15.10;9.75;;;;;;;7.50;93.27;102164.56;2063538;28;44658;-72
2022/02/09 04:54:47;;;;;;;15.13;9.70;;;;;;;7.50;93.10;102163.66;2063283;28;44638;-72
2022/02/09 04:56:00;;;;;;;16.08;9.40;;;;;;;7.50;92.62;102164.56;2063483;28;43042;-73
2022/02/09 04:57:14;;;;;;;15.98;9.68;;;;;;;7.49;92.39;102165.44;2064239;28;44591;-72
2022/02/09 04:59:43;;;;;;;14.57;9.82;;;;;;;7.48;92.65;102160.06;2063832;28;44101;-72
2022/02/09 05:01:10;;;;;;;18.05;10.48;;;;;;;7.47;92.78;102164.53;2063487;28;44905;-72
2022/02/09 05:02:45;;;;;;;14.25;9.38;;;;;;;7.46;93.12;102160.06;2063603;28;43549;-72
2022/02/09 05:21:23;;;;;;;15.38;9.77;;;;;;;7.42;92.74;102150.25;2062936;28;43854;-72
2022/02/09 05:23:49;;;;;;;14.88;9.70;;;;;;;7.41;92.73;102153.78;2063957;28;45463;-72
2022/02/09 05:25:13;;;;;;;15.27;10.27;;;;;;;7.41;92.04;102144.06;2063682;28;46197;-72
2022/02/09 05:27:22;;;;;;;12.73;10.40;;;;;;;7.41;92.43;102146.72;2062726;28;44301;-73
2022/02/09 05:28:24;;;;;;;13.43;10.05;;;;;;;7.40;92.17;102142.25;2063043;28;42312;-72
2022/02/09 05:29:27;;;;;;;14.23;10.65;;;;;;;7.38;92.15;102138.69;2063734;28;44046;-72
2022/02/09 05:30:28;;;;;;;14.75;10.30;;;;;;;7.41;92.25;102137.81;2062567;28;44970;-72
2022/02/09 05:31:30;;;;;;;18.38;10.35;;;;;;;7.40;91.89;102133.38;2063430;28;44007;-72
2022/02/09 05:32:32;;;;;;;14.40;10.15;;;;;;;7.42;92.02;102142.28;2063104;28;44285;-72
2022/02/09 05:33:34;;;;;;;20.83;11.10;;;;;;;7.42;92.01;102139.59;2062677;28;45617;-72
2022/02/09 05:34:35;;;;;;;15.07;10.57;;;;;;;7.41;91.85;102140.47;2062997;28;45285;-72
2022/02/09 05:35:37;;;;;;;16.40;11.02;;;;;;;7.42;91.36;102144.94;2063478;28;46471;-72
2022/02/09 05:36:39;;;;;;;17.83;10.20;;;;;;;7.44;91.37;102132.50;2063105;28;44607;-72
2022/02/09 05:37:41;;;;;;;16.02;10.43;;;;;;;7.45;91.18;102131.66;2063442;28;42787;-72
2022/02/09 05:38:43;;;;;;;14.85;10.98;;;;;;;7.45;90.93;102140.53;2063490;28;44477;-72
2022/02/09 05:39:44;;;;;;;14.60;10.48;;;;;;;7.47;90.97;102134.31;2063648;28;45181;-72
2022/02/09 05:40:48;;;;;;;14.85;10.02;;;;;;;7.46;91.15;102141.41;2063528;28;46342;-72
2022/02/09 05:41:50;;;;;;;15.00;10.02;;;;;;;7.45;91.33;102136.97;2063491;28;37803;-72
2022/02/09 05:42:52;;;;;;;15.85;11.02;;;;;;;7.44;91.44;102133.41;2062704;28;47039;-72
2022/02/09 05:43:53;;;;;;;17.55;10.57;;;;;;;7.43;91.39;102136.97;2062627;28;44295;-72
2022/02/09 05:44:55;;;;;;;16.33;10.50;;;;;;;7.44;91.76;102140.50;2062994;28;45612;-73
2022/02/09 05:46:51;;;;;;;15.77;10.23;;;;;;;7.44;91.47;102148.50;2063315;28;46488;-72
2022/02/09 05:50:27;;;;;;;15.82;9.60;;;;;;;7.43;91.13;102147.63;2063213;28;44781;-72
2022/02/09 05:51:35;;;;;;;14.57;9.98;;;;;;;7.42;91.04;102155.59;2063455;28;44782;-72
2022/02/09 05:52:57;;;;;;;13.25;9.30;;;;;;;7.43;90.92;102149.41;2063215;28;45460;-72
2022/02/09 05:55:23;;;;;;;14.60;10.60;;;;;;;7.43;90.86;102155.59;2062808;28;44719;-72
2022/02/09 05:57:45;;;;;;;15.95;10.32;;;;;;;7.42;90.96;102147.59;2063419;28;44488;-72
2022/02/09 05:59:04;;;;;;;16.77;9.82;;;;;;;7.44;90.58;102153.81;2062896;28;45497;-72
2022/02/09 06:00:07;;;;;;;12.48;9.13;;;;;;;7.43;90.36;102144.06;2054939;28;45835;-72
2022/02/09 06:01:17;;;;;;;13.43;9.80;;;;;;;7.43;90.99;102147.63;2059068;28;20050;-72
2022/02/09 06:02:21;;;;;;;13.10;9.52;;;;;;;7.44;90.87;102145.84;2063070;28;45126;-72
2022/02/09 06:03:23;;;;;;;14.73;9.50;;;;;;;7.44;90.79;102154.72;2063387;28;42788;-72
2022/02/09 06:04:27;;;;;;;13.30;9.63;;;;;;;7.45;90.54;102155.63;2063265;28;45813;-72
2022/02/09 06:05:31;;;;;;;12.20;9.15;;;;;;;7.45;90.30;102147.63;2062633;28;44451;-72
2022/02/09 06:06:35;;;;;;;16.00;9.82;;;;;;;7.44;90.62;102144.06;2062777;28;43904;-72
2022/02/09 06:07:36;;;;;;;14.20;9.68;;;;;;;7.45;90.12;102140.53;2062958;28;42512;-73
2022/02/09 06:08:40;;;;;;;15.25;9.43;;;;;;;7.45;90.51;102144.97;2063319;28;42105;-72
2022/02/09 06:09:42;;;;;;;19.02;9.15;;;;;;;7.45;89.94;102143.19;2063124;28;45511;-73
2022/02/09 06:10:52;;;;;;;14.52;8.73;;;;;;;7.44;90.24;102135.19;2063243;28;42027;-72
2022/02/09 06:12:23;;;;;;;13.95;9.60;;;;;;;7.44;90.35;102143.16;2063149;28;44230;-72
2022/02/09 06:14:56;;;;;;;9.35;8.02;;;;;;;7.45;89.61;102144.97;2062693;28;44422;-72
2022/02/09 06:19:47;;;;;;;10.40;8.00;;;;;;;7.45;90.11;102152.97;2063253;28;44019;-73
2022/02/09 06:20:54;;;;;;;13.85;8.13;;;;;;;7.44;89.86;102143.16;2063176;28;46066;-72
2022/02/09 06:21:58;;;;;;;12.40;8.77;;;;;;;7.44;89.96;102148.50;2062563;28;44430;-72
2022/02/09 06:23:00;;;;;;;8.73;7.78;;;;;;;7.42;90.43;102140.47;2062976;28;44523;-72
2022/02/09 06:24:01;;;;;;;11.40;8.07;;;;;;;7.43;89.35;102136.97;2062863;28;44633;-72
2022/02/09 06:25:03;;;;;;;13.27;8.40;;;;;;;7.44;89.94;102145.84;2063224;28;45636;-72
2022/02/09 06:26:05;;;;;;;11.82;8.38;;;;;;;7.42;89.65;102132.50;2063198;28;44918;-73
2022/02/09 06:27:10;;;;;;;12.00;8.38;;;;;;;7.44;89.67;102140.50;2063053;28;44280;-72
2022/02/09 06:28:11;;;;;;;10.77;7.82;;;;;;;7.44;89.85;102138.72;2062990;28;44981;-72
2022/02/09 06:29:14;;;;;;;11.15;8.43;;;;;;;7.45;89.73;102134.31;2063630;28;43089;-72
2022/02/09 06:30:16;;;;;;;9.93;8.00;;;;;;;7.47;89.53;102126.34;2063053;28;45852;-72
2022/02/09 06:31:18;;;;;;;9.90;7.93;;;;;;;7.47;88.96;102129.88;2063363;28;41429;-73
2022/02/09 06:32:20;;;;;;;9.82;8.13;;;;;;;7.47;89.88;102124.56;2063144;28;44634;-73
2022/02/09 06:33:22;;;;;;;9.25;7.65;;;;;;;7.45;89.36;102110.34;2062553;28;44256;-73
2022/02/09 06:34:26;;;;;;;13.32;8.30;;;;;;;7.47;88.94;102126.34;2062138;28;43104;-72
2022/02/09 06:35:28;;;;;;;8.63;7.47;;;;;;;7.47;89.18;102123.66;2063895;28;43234;-72
2022/02/09 06:36:35;;;;;;;12.25;8.10;;;;;;;7.46;89.55;102122.75;2062916;28;46297;-72
2022/02/09 06:37:43;;;;;;;13.95;8.15;;;;;;;7.46;89.17;102125.41;2063912;28;20054;-72
2022/02/09 06:38:44;;;;;;;10.57;7.28;;;;;;;7.44;89.88;102122.72;2062742;28;44291;-72
2022/02/09 06:39:54;;;;;;;11.63;7.25;;;;;;;7.45;89.84;102121.00;2063305;28;43898;-72
2022/02/09 06:40:57;;;;;;;10.23;7.35;;;;;;;7.46;89.47;102128.09;2062851;28;43251;-72
2022/02/09 06:42:00;;;;;;;9.18;7.03;;;;;;;7.47;89.34;102121.88;2062515;28;46234;-72
2022/02/09 06:43:04;;;;;;;8.40;6.72;;;;;;;7.47;89.03;102126.34;2063006;28;42842;-72
2022/02/09 06:44:06;;;;;;;9.50;7.63;;;;;;;7.45;89.54;102118.31;2063322;28;43777;-72
2022/02/09 06:45:22;;;;;;;9.95;7.20;;;;;;;7.47;89.45;102121.00;2062580;28;39004;-72
2022/02/09 06:46:25;;;;;;;9.45;7.30;;;;;;;7.45;89.14;102119.22;2054854;28;45465;-73
2022/02/09 06:47:28;;;;;;;11.00;7.25;;;;;;;7.46;89.02;102125.41;2054970;28;45163;-72
2022/02/09 06:48:31;;;;;;;11.98;7.78;;;;;;;7.45;88.89;102119.22;2054990;28;44639;-73
2022/02/09 06:49:34;;;;;;;11.63;7.38;;;;;;;7.44;89.21;102124.50;2054257;28;47083;-73
2022/02/09 06:50:42;;;;;;;8.50;6.85;;;;;;;7.45;89.47;102118.31;2054977;28;44315;-72
2022/02/09 06:51:47;;;;;;;11.40;7.18;;;;;;;7.47;88.82;102121.00;2054818;28;43738;-72
2022/02/09 06:52:59;;;;;;;9.60;7.05;;;;;;;7.46;89.23;102125.41;2054777;28;39069;-72
2022/02/09 06:54:09;;;;;;;9.82;7.63;;;;;;;7.47;89.29;102127.22;2055115;28;43207;-72
2022/02/09 06:55:17;;;;;;;11.97;7.70;;;;;;;7.46;88.95;102130.75;2062354;28;45618;-72
2022/02/09 06:56:39;;;;;;;8.95;6.70;;;;;;;7.48;88.98;102128.09;2060529;28;43426;-72
2022/02/09 06:58:59;;;;;;;9.70;7.07;;;;;;;7.48;88.84;102128.09;2054963;28;43995;-72
2022/02/09 07:00:00;;;;;;;11.45;7.38;;;;;;;7.51;88.48;102139.69;2055632;28;44693;-72
2022/02/09 07:01:04;;;;;;;8.25;6.88;;;;;;;7.50;88.59;102132.59;2060816;28;45609;-72
2022/02/09 07:02:07;;;;;;;10.27;7.45;;;;;;;7.50;88.79;102127.25;2064137;28;46549;-72
2022/02/09 07:03:09;;;;;;;9.23;7.25;;;;;;;7.52;88.46;102127.25;2065000;28;38885;-72
2022/02/09 07:04:13;;;;;;;11.00;7.35;;;;;;;7.53;89.47;102137.91;2065242;28;44614;-72
2022/02/09 07:05:15;;;;;;;9.57;7.20;;;;;;;7.54;88.76;102128.19;2065399;28;44389;-72
2022/02/09 07:06:17;;;;;;;10.57;7.70;;;;;;;7.53;88.88;102131.72;2065446;28;37553;-72
2022/02/09 07:07:19;;;;;;;11.52;7.43;;;;;;;7.53;88.79;102137.03;2064775;28;45129;-72
2022/02/09 07:08:21;;;;;;;11.90;7.65;;;;;;;7.52;89.07;102141.47;2066488;28;20042;-72
2022/02/09 07:09:28;;;;;;;11.27;6.78;;;;;;;7.54;88.61;102134.38;2065509;28;44257;-72
2022/02/09 07:10:29;;;;;;;9.70;7.03;;;;;;;7.53;88.80;102135.25;2064713;28;45724;-72
2022/02/09 07:11:32;;;;;;;9.35;7.10;;;;;;;7.54;88.67;102138.84;2064801;28;44138;-72
2022/02/09 07:12:33;;;;;;;10.63;7.43;;;;;;;7.53;88.59;102135.25;2065552;28;45185;-72
2022/02/09 07:13:35;;;;;;;9.68;7.50;;;;;;;7.55;88.93;102130.81;2065306;28;43154;-72
2022/02/09 07:14:37;;;;;;;10.88;7.93;;;;;;;7.56;88.20;102131.75;2066911;28;20161;-72
2022/02/09 07:15:43;;;;;;;11.77;7.90;;;;;;;7.58;88.74;102127.31;2065678;28;40184;-72
2022/02/09 07:16:45;;;;;;;13.73;8.32;;;;;;;7.59;88.16;102122.00;2065931;28;45126;-70
2022/02/09 07:17:48;;;;;;;10.73;8.00;;;;;;;7.63;88.13;102128.25;2063513;28;46168;-70
2022/02/09 07:18:51;;;;;;;11.13;8.10;;;;;;;7.69;88.33;102122.06;2065450;28;43126;-72
2022/02/09 07:20:06;;;;;;;8.85;7.53;;;;;;;7.70;87.50;102118.50;2064361;28;44083;-72
2022/02/09 07:21:15;;;;;;;12.15;8.35;;;;;;;7.68;88.52;102118.53;2065534;28;40804;-72
2022/02/09 07:22:23;;;;;;;9.63;8.25;;;;;;;7.68;88.19;102120.28;2065904;28;43247;-70
2022/02/09 07:23:32;;;;;;;13.18;8.23;;;;;;;7.67;88.45;102121.16;2065544;28;45342;-72
2022/02/09 07:24:36;;;;;;;10.38;8.23;;;;;;;7.67;88.12;102124.72;2065409;28;46107;-73
2022/02/09 07:25:46;;;;;;;13.18;9.00;;;;;;;7.67;88.32;102134.50;2065469;28;45650;-72
2022/02/09 07:26:51;;;;;;;10.40;8.48;;;;;;;7.67;88.10;102129.16;2065887;28;35764;-72
2022/02/09 07:27:55;;;;;;;12.90;8.70;;;;;;;7.65;88.70;102129.16;2065432;28;44664;-72
2022/02/09 07:29:00;;;;;;;11.45;8.90;;;;;;;7.66;88.45;102130.91;2065347;28;45593;-72
2022/02/09 07:30:02;;;;;;;10.57;9.25;;;;;;;7.66;88.52;102128.25;2065671;28;45858;-72
2022/02/09 07:31:09;;;;;;;10.43;8.73;;;;;;;7.67;88.45;102137.16;2064911;28;45286;-72
2022/02/09 07:32:11;;;;;;;14.18;9.77;;;;;;;7.67;88.78;102131.84;2065252;28;47031;-72
2022/02/09 07:33:13;;;;;;;10.23;8.88;;;;;;;7.68;88.81;102136.25;2065802;28;43761;-72
2022/02/09 07:34:15;;;;;;;14.02;9.30;;;;;;;7.69;88.18;102135.41;2065080;28;45349;-72
2022/02/09 07:35:17;;;;;;;9.73;8.70;;;;;;;7.70;88.74;102134.50;2110904;23;45139;-70
2022/02/09 07:36:19;;;;;;;11.00;9.40;;;;;;;7.70;88.64;102135.41;2098796;28;20131;-71
2022/02/09 07:37:21;;;;;;;14.07;9.27;;;;;;;7.69;88.83;102138.06;2091690;28;45020;-72
2022/02/09 07:38:23;;;;;;;11.68;9.88;;;;;;;7.70;88.74;102139.84;2098241;28;43092;-71
2022/02/09 07:39:25;;;;;;;17.02;10.18;;;;;;;7.70;88.29;102139.84;2098178;28;44275;-70
2022/02/09 07:40:29;;;;;;;12.68;10.57;;;;;;;7.72;88.84;102135.44;2098818;28;20037;-71
2022/02/09 07:41:32;;;;;;;13.10;10.13;;;;;;;7.71;88.67;102137.19;2097595;28;45443;-74
2022/02/09 07:42:38;;;;;;;14.50;9.80;;;;;;;7.74;88.52;102136.34;2097474;28;46281;-71
2022/02/09 07:43:51;;;;;;;11.48;9.82;;;;;;;7.74;88.55;102133.66;2098893;28;20927;-71
2022/02/09 07:45:22;;;;;;;11.77;9.98;;;;;;;7.76;88.11;102129.25;2098495;28;45942;-71
2022/02/09 07:46:57;;;;;;;12.50;9.68;;;;;;;7.76;88.43;102135.44;2098366;28;43866;-71
2022/02/09 07:49:23;;;;;;;12.52;9.80;;;;;;;7.79;88.57;102138.16;2098113;28;44558;-71
2022/02/09 07:52:49;;;;;;;12.82;10.30;;;;;;;7.84;88.31;102131.09;2097801;28;45928;-71
2022/02/09 07:54:54;;;;;;;12.48;9.95;;;;;;;7.88;87.14;102126.66;2097790;28;45325;-71
2022/02/09 07:55:58;;;;;;;13.25;10.27;;;;;;;7.89;88.19;102128.44;2091134;28;20087;-71
2022/02/09 07:56:59;;;;;;;12.75;10.80;;;;;;;7.89;87.51;102131.09;2097484;28;45329;-71
2022/02/09 07:58:03;;;;;;;11.48;9.90;;;;;;;7.89;88.23;102136.44;2098168;28;46252;-71
2022/02/09 07:59:10;;;;;;;11.40;10.20;;;;;;;7.91;87.99;102134.66;2097981;28;44670;-71
2022/02/09 08:00:13;;;;;;;13.07;10.52;;;;;;;7.91;87.41;102126.66;2098557;28;38214;-71
2022/02/09 08:01:20;;;;;;;15.35;10.80;;;;;;;7.92;88.04;102117.81;2098177;28;20144;-71
2022/02/09 08:02:22;;;;;;;11.80;10.23;;;;;;;7.93;87.59;102127.59;2098295;28;45452;-71
2022/02/09 08:03:23;;;;;;;14.23;10.45;;;;;;;7.95;87.23;102127.59;2098301;28;46474;-71
2022/02/09 08:04:25;;;;;;;11.82;9.77;;;;;;;7.95;86.92;102124.91;2098043;28;43531;-71
2022/02/09 08:05:27;;;;;;;10.88;9.75;;;;;;;7.94;87.38;102123.16;2098155;28;43028;-71
2022/02/09 08:06:30;;;;;;;12.18;10.55;;;;;;;7.95;87.16;102119.59;2101376;28;44285;-71
2022/02/09 08:07:32;;;;;;;10.90;9.60;;;;;;;7.97;86.51;102115.19;2098397;28;45036;-71
2022/02/09 08:08:35;;;;;;;12.07;10.77;;;;;;;7.97;87.09;102108.06;2097424;28;45700;-71
2022/02/09 08:09:40;;;;;;;11.80;10.18;;;;;;;7.97;87.05;102102.72;2097885;28;45061;-78
2022/02/09 08:10:47;;;;;;;11.82;10.57;;;;;;;8.00;87.77;102100.09;2098144;28;44922;-72
2022/02/09 08:11:58;;;;;;;11.75;10.52;;;;;;;8.01;87.40;102103.63;2097056;28;46428;-71
2022/02/09 08:24:01;;;;;;;9.57;8.65;;;;;;;8.26;85.71;102094.00;2105401;28;20037;-73
2022/02/09 08:26:56;;;;;;;11.73;8.82;;;;;;;8.30;85.03;102090.47;2096706;28;43258;-72
2022/02/09 08:28:20;;;;;;;10.57;9.52;;;;;;;8.32;86.09;102101.16;2096538;28;43931;-73
2022/02/09 08:29:42;;;;;;;11.50;9.40;;;;;;;8.33;85.00;102100.28;2096330;28;43689;-73
2022/02/09 08:31:00;;;;;;;10.75;9.13;;;;;;;8.35;85.01;102102.06;2095653;28;45140;-76
2022/02/09 08:33:17;;;;;;;10.38;9.38;;;;;;;8.40;84.70;102099.41;2096520;28;44555;-72
2022/02/09 08:34:20;;;;;;;10.85;9.38;;;;;;;8.40;84.80;102105.63;2096908;28;45270;-72
2022/02/09 08:35:22;;;;;;;9.90;8.25;;;;;;;8.39;85.20;102101.16;2096582;28;46129;-71
2022/02/09 08:36:26;;;;;;;12.18;8.73;;;;;;;8.40;83.94;102102.97;2097491;28;45439;-72
2022/02/09 08:37:28;;;;;;;10.75;8.13;;;;;;;8.43;84.71;102098.56;2096518;28;45378;-72
2022/02/09 08:38:31;;;;;;;11.13;8.82;;;;;;;8.44;84.60;102103.03;2095927;28;45435;-72
2022/02/09 08:39:36;;;;;;;9.82;8.45;;;;;;;8.47;84.10;102109.28;2096563;28;20049;-72
2022/02/09 08:40:39;;;;;;;8.65;7.85;;;;;;;8.47;83.84;102113.69;2096154;28;46375;-72
2022/02/09 08:41:41;;;;;;;11.18;8.93;;;;;;;8.46;84.69;102101.25;2096496;28;42076;-72
2022/02/09 08:42:45;;;;;;;11.95;8.45;;;;;;;8.45;84.96;102110.13;2096926;28;44110;-72
2022/02/09 08:43:46;;;;;;;10.27;7.95;;;;;;;8.47;84.87;102103.94;2087605;28;45697;-72
2022/02/09 08:44:50;;;;;;;8.90;8.00;;;;;;;8.47;84.05;102087.91;2088350;28;44099;-72
2022/02/09 08:46:12;;;;;;;8.00;7.20;;;;;;;8.50;83.91;102108.38;2097641;28;20091;-72
2022/02/09 08:47:14;;;;;;;8.80;7.63;;;;;;;8.48;83.77;102104.81;2096670;28;42912;-72
2022/02/09 08:48:20;;;;;;;9.15;7.82;;;;;;;8.52;84.53;102103.94;2096646;28;45561;-72
2022/02/09 08:49:22;;;;;;;8.63;7.28;;;;;;;8.55;84.24;102111.97;2097752;28;20087;-72
2022/02/09 08:50:24;;;;;;;8.15;7.28;;;;;;;8.56;83.59;102114.66;2096662;28;43149;-72
2022/02/09 08:51:27;;;;;;;8.52;7.70;;;;;;;8.59;84.10;102103.06;2095998;28;46485;-72
2022/02/09 08:52:29;;;;;;;8.10;6.78;;;;;;;8.64;83.21;102095.97;2094556;28;44202;-72
2022/02/09 08:53:33;;;;;;;8.43;6.88;;;;;;;8.61;83.12;102109.31;2087880;28;46414;-72
2022/02/09 08:54:35;;;;;;;10.70;6.95;;;;;;;8.65;83.80;102107.53;2088487;28;44126;-72
2022/02/09 08:55:41;;;;;;;8.23;7.35;;;;;;;8.65;83.49;102105.78;2087648;28;43766;-72
2022/02/09 08:56:42;;;;;;;8.00;6.82;;;;;;;8.69;83.63;102109.34;2088364;28;46254;-72
2022/02/09 08:57:44;;;;;;;9.10;6.25;;;;;;;8.71;82.71;102099.56;2087734;28;43318;-72
2022/02/09 08:58:46;;;;;;;8.88;6.57;;;;;;;8.72;82.80;102115.59;2088757;28;45158;-72
2022/02/09 08:59:50;;;;;;;7.35;5.93;;;;;;;8.73;82.88;102111.16;2088909;28;29905;-72
2022/02/09 09:01:06;;;;;;;6.70;6.00;;;;;;;8.74;83.61;102107.56;2088549;28;37702;-72
2022/02/09 09:02:12;;;;;;;6.90;5.93;;;;;;;8.79;82.89;102112.06;2087376;28;45871;-72
2022/02/09 09:03:18;;;;;;;6.53;5.45;;;;;;;8.81;82.35;102113.84;2087923;28;45869;-71
2022/02/09 09:04:25;;;;;;;8.10;6.03;;;;;;;8.83;82.19;102102.28;2087899;28;45430;-71
2022/02/09 09:05:39;;;;;;;12.80;6.10;;;;;;;8.91;82.79;102104.97;2087887;28;46694;-72
2022/02/09 09:06:43;;;;;;;7.15;5.88;;;;;;;8.94;82.55;102099.66;2081681;28;41784;-72
2022/02/09 09:07:51;;;;;;;7.90;5.15;;;;;;;9.03;82.94;102102.34;2086883;28;45480;-72
2022/02/09 09:10:12;;;;;;;6.15;5.28;;;;;;;9.13;81.73;102096.13;2088066;28;45160;-72